Hovedside
METAR-TAF:

METAR-TAF

Lufthavner :

Portland internasjonale lufthavn

Portland, Oregon, USA

breddegrad: 45-35-27N, lengdegrad: 122-36-01W, høyde over havet: 8 m

Gjeldene værobservasjon

Denne rapporten ble laget for 49 minutter siden, klokken 16:53 UTC
Vind 5 kt fra Nordvest
Temperatur 13°C
Luftfuktighet 54%
Trykk 1020 hPa
Sikt: 16.1 km
Få skyer i en høyde av 20000 ft

METAR: KPDX 091653Z 31005KT 10SM FEW200 13/04 A3011 RMK AO2 SLP195 T01330039

Tid: 10:42 (17:42 UTC)

Varsel

Denne rapporten ble laget for 22 minutter siden, klokken 17:20 UTC
Varsel gyldig fra 09. klokken 18 UTC til 10. klokken 18 UTC
Vind 5 kt fra Nordvest
Sikt: 10 km
Få skyer i en høyde av 20000 ft
Fra 10. klokken 1400 UTC
Vind 3 kt fra skiftende retning
Sikt: 10 km
Brutte skyer i en høyde av 2500 ft

TAF: KPDX 091720Z 0918/1018 31005KT P6SM FEW200 FM101400 VRB03KT P6SM BKN025

Værobservasjoner og værvarsel for over 4000 flyplasser (METAR- og TAF-rapporter).

Tilgjengelige stasjoner er representert av de røde og gule prikkene på kartet.

Hold musepekeren over prikken for å se navnet på stasjonen.

Klikk så for å se værobservasjoner og -varsler.

For å forandre kartet kan du klikke på den grønne knappen med svart kryss for å zoome inn, på den grønne knappen med strek for å zoome ut, eller på de grønne pilene for å se tilstøtende kart.


METAR-TAF: